Terminal Aerodrome Forecast
Issued by NWS

Home | Current Version | Previous Version | Text Only | Print | Product List | Glossary On
Versions: 1 2 3 4 5 6 7 8 9 10 11 12
000
FTUS43 KOAX 181739
TAFSNY
TAF
KSNY 181739Z 1818/1918 27012G20KT P6SM BKN150
     FM190000 03017G24KT P6SM OVC100
     FM190300 03018G28KT P6SM OVC015=

USA.gov is the U.S. government's official web portal to all federal, state and local government web resources and services.